CheckWX is a tool to help pilots better visualize weather data.  It is not intended as a substitute for an official pre-flight weather briefing.

13:01:27 UTC

KLGB METAR
Long Beach / Daugherty Field / Airport
Long Beach, California, USA
Current

1 hour ago

KLGB 221153Z AUTO 00000KT 8SM CLR 04/01 A2985 RMK AO2 SLP106 T00390011 10078 20039 53016
Observed
Feb-22 @ 11:53 UTC
Visibility
8 SM
Flight Rules
VFR
Cloud Levels
  • Clear skies
Temperature
C / 39°F
Dewpoint
C / 34°F
Humidity
81%
Altimeter
29.85" Hg
Pressure
1010.6 hPa
Previous

2 hours ago

KLGB 221053Z AUTO 29003KT 9SM CLR 05/02 A2983 RMK AO2 SLP100 T00500017
Observed
Feb-22 @ 10:53 UTC
Wind
  • 290° at 3 KTS
Visibility
9 SM
Flight Rules
VFR
Cloud Levels
  • Clear skies
Temperature
C / 41°F
Dewpoint
C / 36°F
Humidity
81%
Altimeter
29.83" Hg
Pressure
1010 hPa
Previous

3 hours ago

KLGB 220953Z AUTO 00000KT 9SM CLR 05/01 A2981 RMK AO2 SLP096 T00500011
Observed
Feb-22 @ 09:53 UTC
Visibility
9 SM
Flight Rules
VFR
Cloud Levels
  • Clear skies
Temperature
C / 41°F
Dewpoint
C / 34°F
Humidity
76%
Altimeter
29.81" Hg
Pressure
1009.6 hPa